sensor_id;sensor_type;location;lat;lon;timestamp;P1;durP1;ratioP1;P2;durP2;ratioP2
44204;SDS011;30163;42.698;23.344;2022-07-03T19:32:20;18.23;;;10.25;;
44204;SDS011;30163;42.698;23.344;2022-07-03T19:34:46;20.95;;;11.55;;
44204;SDS011;30163;42.698;23.344;2022-07-03T19:37:14;18.83;;;11.25;;
44204;SDS011;30163;42.698;23.344;2022-07-03T19:39:40;19.85;;;11.93;;
44204;SDS011;30163;42.698;23.344;2022-07-03T19:42:05;22.38;;;11.93;;
44204;SDS011;30163;42.698;23.344;2022-07-03T19:44:31;21.67;;;11.10;;
44204;SDS011;30163;42.698;23.344;2022-07-03T19:46:57;21.95;;;9.93;;
44204;SDS011;30163;42.698;23.344;2022-07-03T19:49:23;22.80;;;10.27;;
44204;SDS011;30163;42.698;23.344;2022-07-03T19:51:48;15.18;;;8.90;;
44204;SDS011;30163;42.698;23.344;2022-07-03T19:54:14;17.65;;;9.90;;
44204;SDS011;30163;42.698;23.344;2022-07-03T19:56:40;17.58;;;10.15;;
44204;SDS011;30163;42.698;23.344;2022-07-03T19:59:05;22.55;;;11.77;;
44204;SDS011;30163;42.698;23.344;2022-07-03T20:01:31;24.17;;;11.55;;
44204;SDS011;30163;42.698;23.344;2022-07-03T20:03:57;16.65;;;10.38;;
44204;SDS011;30163;42.698;23.344;2022-07-03T20:06:22;20.38;;;11.32;;
44204;SDS011;30163;42.698;23.344;2022-07-03T20:08:48;17.77;;;11.57;;
44204;SDS011;30163;42.698;23.344;2022-07-03T20:11:15;24.63;;;11.80;;
44204;SDS011;30163;42.698;23.344;2022-07-03T20:13:40;18.42;;;11.35;;
44204;SDS011;30163;42.698;23.344;2022-07-03T20:16:09;18.50;;;10.20;;
44204;SDS011;30163;42.698;23.344;2022-07-03T20:18:34;24.15;;;11.20;;
44204;SDS011;30163;42.698;23.344;2022-07-03T20:21:00;18.45;;;9.80;;
44204;SDS011;30163;42.698;23.344;2022-07-03T20:23:26;21.23;;;11.40;;
44204;SDS011;30163;42.698;23.344;2022-07-03T20:25:52;17.38;;;10.27;;
44204;SDS011;30163;42.698;23.344;2022-07-03T20:28:22;28.33;;;10.82;;
44204;SDS011;30163;42.698;23.344;2022-07-03T20:30:48;26.27;;;9.35;;
44204;SDS011;30163;42.698;23.344;2022-07-03T20:33:14;19.75;;;10.63;;
44204;SDS011;30163;42.698;23.344;2022-07-03T20:35:39;17.65;;;9.98;;
44204;SDS011;30163;42.698;23.344;2022-07-03T20:38:05;16.35;;;9.68;;
44204;SDS011;30163;42.698;23.344;2022-07-03T20:40:31;18.48;;;9.70;;
44204;SDS011;30163;42.698;23.344;2022-07-03T20:42:57;13.77;;;9.63;;
44204;SDS011;30163;42.698;23.344;2022-07-03T20:45:26;14.05;;;8.95;;
44204;SDS011;30163;42.698;23.344;2022-07-03T20:47:52;16.42;;;8.98;;
44204;SDS011;30163;42.698;23.344;2022-07-03T20:50:17;17.92;;;8.75;;
44204;SDS011;30163;42.698;23.344;2022-07-03T20:52:49;14.63;;;8.38;;
44204;SDS011;30163;42.698;23.344;2022-07-03T20:55:17;13.23;;;8.60;;
44204;SDS011;30163;42.698;23.344;2022-07-03T20:57:42;19.05;;;8.57;;
44204;SDS011;30163;42.698;23.344;2022-07-03T21:00:08;14.52;;;7.47;;
44204;SDS011;30163;42.698;23.344;2022-07-03T21:02:37;12.95;;;8.20;;
44204;SDS011;30163;42.698;23.344;2022-07-03T21:05:03;10.85;;;7.30;;
44204;SDS011;30163;42.698;23.344;2022-07-03T21:07:28;12.48;;;8.43;;
44204;SDS011;30163;42.698;23.344;2022-07-03T21:09:54;16.65;;;8.70;;
44204;SDS011;30163;42.698;23.344;2022-07-03T21:12:20;12.80;;;8.32;;
44204;SDS011;30163;42.698;23.344;2022-07-03T21:14:46;16.25;;;9.02;;
44204;SDS011;30163;42.698;23.344;2022-07-03T21:17:12;17.63;;;8.27;;
44204;SDS011;30163;42.698;23.344;2022-07-03T21:19:38;15.02;;;9.60;;
44204;SDS011;30163;42.698;23.344;2022-07-03T21:22:03;12.90;;;8.10;;
44204;SDS011;30163;42.698;23.344;2022-07-03T21:24:29;16.95;;;10.65;;
44204;SDS011;30163;42.698;23.344;2022-07-03T21:26:54;15.88;;;9.98;;
44204;SDS011;30163;42.698;23.344;2022-07-03T21:29:21;17.45;;;10.40;;
44204;SDS011;30163;42.698;23.344;2022-07-03T21:31:47;15.80;;;10.02;;
44204;SDS011;30163;42.698;23.344;2022-07-03T21:34:14;14.45;;;8.98;;
44204;SDS011;30163;42.698;23.344;2022-07-03T21:36:41;14.68;;;9.70;;
44204;SDS011;30163;42.698;23.344;2022-07-03T21:39:07;13.52;;;8.68;;
44204;SDS011;30163;42.698;23.344;2022-07-03T21:41:33;15.85;;;9.90;;
44204;SDS011;30163;42.698;23.344;2022-07-03T21:43:59;16.52;;;9.68;;
44204;SDS011;30163;42.698;23.344;2022-07-03T21:46:25;13.88;;;9.10;;
44204;SDS011;30163;42.698;23.344;2022-07-03T21:48:51;14.95;;;9.75;;
44204;SDS011;30163;42.698;23.344;2022-07-03T21:51:16;15.85;;;8.82;;
44204;SDS011;30163;42.698;23.344;2022-07-03T21:53:42;15.80;;;10.20;;
44204;SDS011;30163;42.698;23.344;2022-07-03T21:56:07;15.13;;;9.32;;
44204;SDS011;30163;42.698;23.344;2022-07-03T21:58:33;14.45;;;9.55;;
44204;SDS011;30163;42.698;23.344;2022-07-03T22:00:58;19.38;;;9.43;;
44204;SDS011;30163;42.698;23.344;2022-07-03T22:03:24;23.85;;;8.88;;
44204;SDS011;30163;42.698;23.344;2022-07-03T22:05:50;11.50;;;8.55;;
44204;SDS011;30163;42.698;23.344;2022-07-03T22:08:15;16.27;;;8.98;;
44204;SDS011;30163;42.698;23.344;2022-07-03T22:10:44;15.52;;;8.90;;
44204;SDS011;30163;42.698;23.344;2022-07-03T22:13:10;16.17;;;9.15;;
44204;SDS011;30163;42.698;23.344;2022-07-03T22:15:36;14.05;;;8.68;;
44204;SDS011;30163;42.698;23.344;2022-07-03T22:18:02;14.52;;;8.75;;
44204;SDS011;30163;42.698;23.344;2022-07-03T22:20:28;12.32;;;7.70;;
44204;SDS011;30163;42.698;23.344;2022-07-03T22:22:53;11.50;;;7.85;;
44204;SDS011;30163;42.698;23.344;2022-07-03T22:25:19;11.90;;;8.15;;
44204;SDS011;30163;42.698;23.344;2022-07-03T22:27:45;15.07;;;8.02;;
44204;SDS011;30163;42.698;23.344;2022-07-03T22:30:10;9.45;;;6.43;;
44204;SDS011;30163;42.698;23.344;2022-07-03T22:32:38;10.10;;;7.13;;
44204;SDS011;30163;42.698;23.344;2022-07-03T22:35:04;18.80;;;7.50;;
44204;SDS011;30163;42.698;23.344;2022-07-03T22:37:30;12.27;;;7.15;;
44204;SDS011;30163;42.698;23.344;2022-07-03T22:39:55;10.45;;;6.90;;
44204;SDS011;30163;42.698;23.344;2022-07-03T22:42:21;11.00;;;6.22;;
44204;SDS011;30163;42.698;23.344;2022-07-03T22:44:46;9.00;;;6.50;;
44204;SDS011;30163;42.698;23.344;2022-07-03T22:47:12;12.75;;;6.13;;
44204;SDS011;30163;42.698;23.344;2022-07-03T22:49:38;14.00;;;6.22;;
44204;SDS011;30163;42.698;23.344;2022-07-03T22:52:04;10.23;;;5.63;;
44204;SDS011;30163;42.698;23.344;2022-07-03T22:54:30;12.93;;;7.15;;
44204;SDS011;30163;42.698;23.344;2022-07-03T22:56:56;10.77;;;6.57;;
44204;SDS011;30163;42.698;23.344;2022-07-03T22:59:21;10.13;;;4.90;;
44204;SDS011;30163;42.698;23.344;2022-07-03T23:01:47;11.43;;;5.45;;
44204;SDS011;30163;42.698;23.344;2022-07-03T23:04:13;14.45;;;5.63;;
44204;SDS011;30163;42.698;23.344;2022-07-03T23:06:38;12.75;;;5.53;;
44204;SDS011;30163;42.698;23.344;2022-07-03T23:09:04;8.85;;;5.32;;
44204;SDS011;30163;42.698;23.344;2022-07-03T23:11:32;9.88;;;6.30;;
44204;SDS011;30163;42.698;23.344;2022-07-03T23:13:58;9.82;;;5.72;;
44204;SDS011;30163;42.698;23.344;2022-07-03T23:16:24;13.48;;;6.50;;
44204;SDS011;30163;42.698;23.344;2022-07-03T23:18:49;9.30;;;5.85;;
44204;SDS011;30163;42.698;23.344;2022-07-03T23:21:15;7.80;;;5.80;;
44204;SDS011;30163;42.698;23.344;2022-07-03T23:23:40;10.07;;;6.28;;
44204;SDS011;30163;42.698;23.344;2022-07-03T23:26:08;8.98;;;5.10;;
44204;SDS011;30163;42.698;23.344;2022-07-03T23:28:33;13.07;;;5.65;;
44204;SDS011;30163;42.698;23.344;2022-07-03T23:30:59;9.82;;;5.38;;
44204;SDS011;30163;42.698;23.344;2022-07-03T23:33:24;8.25;;;5.22;;
44204;SDS011;30163;42.698;23.344;2022-07-03T23:35:50;7.63;;;4.82;;
44204;SDS011;30163;42.698;23.344;2022-07-03T23:38:15;6.32;;;4.40;;
44204;SDS011;30163;42.698;23.344;2022-07-03T23:40:41;12.18;;;5.50;;
44204;SDS011;30163;42.698;23.344;2022-07-03T23:43:06;7.28;;;4.50;;
44204;SDS011;30163;42.698;23.344;2022-07-03T23:45:32;11.07;;;5.43;;
44204;SDS011;30163;42.698;23.344;2022-07-03T23:47:58;9.95;;;5.00;;
44204;SDS011;30163;42.698;23.344;2022-07-03T23:50:23;8.25;;;4.55;;
44204;SDS011;30163;42.698;23.344;2022-07-03T23:53:04;7.57;;;4.95;;
44204;SDS011;30163;42.698;23.344;2022-07-03T23:55:33;9.30;;;5.57;;
44204;SDS011;30163;42.698;23.344;2022-07-03T23:58:01;9.60;;;4.40;;
